Time;durP1;ratioP1;P1;durP2;ratioP2;P2;SDS_P1;SDS_P2;PMS_P1;PMS_P2;Temp;Humidity;BMP_temperature;BMP_pressure;BME280_temperature;BME280_humidity;BME280_pressure;Samples;Min_cycle;Max_cycle;Signal;HPM_P1;HPM_P2
2022/08/25 00:01:55;;;;;;;7.80;3.00;;;;;;;29.13;44.29;100460.50;104956;1302;72888;-85
2022/08/25 00:04:21;;;;;;;9.60;3.20;;;;;;;29.12;44.12;100461.98;104763;1305;74623;-84
2022/08/25 00:06:48;;;;;;;8.40;3.00;;;;;;;29.13;44.34;100464.29;104981;1302;61068;-85
2022/08/25 00:09:17;;;;;;;9.10;3.10;;;;;;;29.12;44.12;100462.33;104967;1303;61276;-85
2022/08/25 00:11:43;;;;;;;6.50;2.60;;;;;;;29.12;44.10;100461.23;104859;1304;72655;-85
2022/08/25 00:14:13;;;;;;;6.80;2.80;;;;;;;29.13;44.06;100467.17;104924;1303;61416;-85
2022/08/25 00:16:39;;;;;;;7.00;3.10;;;;;;;29.13;44.14;100468.07;105011;1302;60317;-85
2022/08/25 00:19:30;;;;;;;7.60;2.90;;;;;;;29.12;44.08;100463.41;104985;1303;61188;-86
2022/08/25 00:21:56;;;;;;;7.60;3.20;;;;;;;29.12;44.29;100457.30;104524;1309;73844;-85
2022/08/25 00:24:23;;;;;;;6.20;2.80;;;;;;;29.12;44.07;100457.12;104547;1309;61317;-85
2022/08/25 00:27:17;;;;;;;10.00;3.00;;;;;;;29.11;44.05;100458.24;104562;1308;62509;-85
2022/08/25 00:29:43;;;;;;;8.40;3.20;;;;;;;29.11;44.02;100459.54;104403;1313;60649;-85
2022/08/25 00:32:09;;;;;;;10.30;3.00;;;;;;;29.11;44.27;100463.52;104211;1313;61292;-85
2022/08/25 00:34:36;;;;;;;9.10;2.90;;;;;;;29.11;44.04;100460.98;103997;1313;61298;-85
2022/08/25 00:37:02;;;;;;;8.10;3.10;;;;;;;29.12;44.21;100460.77;104194;1315;61382;-85
2022/08/25 00:39:30;;;;;;;8.70;2.90;;;;;;;29.11;44.25;100464.39;104200;1315;61155;-85
2022/08/25 00:41:57;;;;;;;8.50;2.70;;;;;;;29.11;44.17;100463.17;104202;1313;72930;-85
2022/08/25 00:44:24;;;;;;;8.70;3.00;;;;;;;29.12;44.09;100462.77;104213;1313;74661;-85
2022/08/25 00:46:52;;;;;;;8.50;3.00;;;;;;;29.11;43.99;100459.75;104309;1313;61316;-85
2022/08/25 00:49:40;;;;;;;9.60;3.00;;;;;;;29.11;44.05;100463.02;104236;1313;61189;-85
2022/08/25 00:52:13;;;;;;;6.70;2.90;;;;;;;29.10;43.99;100465.55;104369;1313;74130;-85
2022/08/25 00:54:48;;;;;;;6.90;2.70;;;;;;;29.10;44.17;100466.14;104234;1313;76307;-85
2022/08/25 00:57:15;;;;;;;7.60;2.90;;;;;;;29.10;44.16;100466.69;104203;1313;61257;-85
2022/08/25 01:00:12;;;;;;;6.20;2.80;;;;;;;29.10;44.06;100461.10;104475;1308;60725;-85
2022/08/25 01:02:38;;;;;;;8.30;2.90;;;;;;;29.10;44.21;100465.08;104342;1313;73732;-86
2022/08/25 01:05:04;;;;;;;7.00;3.00;;;;;;;29.10;43.98;100467.11;104237;1314;61267;-85
2022/08/25 01:07:32;;;;;;;8.30;2.60;;;;;;;29.10;44.10;100465.80;104492;1309;61198;-85
2022/08/25 01:09:59;;;;;;;7.20;2.90;;;;;;;29.10;43.89;100472.52;104559;1309;61319;-85
2022/08/25 01:12:26;;;;;;;7.10;3.20;;;;;;;29.10;44.14;100471.09;104592;1308;71912;-85
2022/08/25 01:14:53;;;;;;;8.00;3.20;;;;;;;29.10;44.16;100469.84;104511;1309;75871;-85
2022/08/25 01:17:20;;;;;;;7.20;3.10;;;;;;;29.09;44.07;100470.20;104531;1309;61408;-85
2022/08/25 01:19:47;;;;;;;11.00;3.60;;;;;;;29.10;44.17;100470.89;104573;1308;61190;-85
2022/08/25 01:22:13;;;;;;;7.00;2.90;;;;;;;29.10;44.00;100469.09;104500;1309;61980;-85
2022/08/25 01:24:52;;;;;;;7.40;3.00;;;;;;;29.10;44.04;100468.38;104532;1309;61407;-85
2022/08/25 01:27:18;;;;;;;7.00;3.00;;;;;;;29.09;44.14;100466.61;104517;1309;61379;-85
2022/08/25 01:29:44;;;;;;;7.10;3.00;;;;;;;29.09;43.98;100464.67;104599;1309;61814;-85
2022/08/25 01:32:12;;;;;;;7.50;3.00;;;;;;;29.09;44.13;100460.86;104552;1309;61290;-85
2022/08/25 01:34:41;;;;;;;9.50;3.10;;;;;;;29.08;44.12;100458.52;104472;1309;74854;-86
2022/08/25 01:37:08;;;;;;;7.30;2.80;;;;;;;29.08;44.07;100456.55;104499;1309;61035;-85
2022/08/25 01:39:37;;;;;;;8.80;3.10;;;;;;;29.09;44.13;100458.35;104712;1303;60746;-85
2022/08/25 01:42:26;;;;;;;;;;;;;;;29.08;44.02;100461.82;105176;1301;72799;-86
2022/08/25 01:44:52;;;;;;;8.80;3.20;;;;;;;29.06;44.08;100463.55;104679;1309;74618;-86
2022/08/25 01:47:17;;;;;;;6.70;2.80;;;;;;;29.06;43.97;100466.38;104549;1309;60156;-86
2022/08/25 01:49:44;;;;;;;8.10;2.90;;;;;;;29.07;43.89;100466.38;104666;1309;61312;-86
2022/08/25 01:52:24;;;;;;;5.90;2.90;;;;;;;29.07;43.94;100460.73;104556;1309;61262;-86
2022/08/25 01:54:49;;;;;;;8.00;2.80;;;;;;;29.07;43.95;100458.89;104643;1308;74649;-86
2022/08/25 01:57:15;;;;;;;8.50;3.10;;;;;;;29.07;43.92;100452.58;104570;1309;61270;-86
2022/08/25 01:59:41;;;;;;;8.20;2.90;;;;;;;29.06;44.08;100451.16;104544;1309;61300;-85
2022/08/25 02:02:08;;;;;;;9.20;3.10;;;;;;;29.07;43.89;100451.49;104616;1309;61333;-85
2022/08/25 02:04:33;;;;;;;8.20;3.10;;;;;;;29.07;43.97;100447.86;104568;1309;61373;-85
2022/08/25 02:07:00;;;;;;;8.90;3.10;;;;;;;29.06;44.01;100442.45;104633;1309;61568;-86
2022/08/25 02:09:26;;;;;;;7.40;2.80;;;;;;;29.07;43.80;100440.96;104606;1309;61406;-85
2022/08/25 02:11:52;;;;;;;10.20;3.40;;;;;;;29.07;43.98;100439.58;104498;1309;61352;-85
2022/08/25 02:14:18;;;;;;;8.30;3.20;;;;;;;29.06;43.87;100441.92;104631;1308;61256;-85
2022/08/25 02:16:47;;;;;;;8.40;3.10;;;;;;;29.06;44.02;100441.05;104615;1308;61710;-85
2022/08/25 02:19:13;;;;;;;5.80;2.90;;;;;;;29.06;43.95;100439.94;104634;1309;61166;-85
2022/08/25 02:21:39;;;;;;;6.90;3.00;;;;;;;29.06;43.79;100439.61;104735;1302;61186;-85
2022/08/25 02:24:05;;;;;;;8.30;3.10;;;;;;;29.06;43.91;100438.31;104935;1305;61247;-85
2022/08/25 02:26:31;;;;;;;5.90;2.90;;;;;;;29.06;44.00;100440.14;104872;1305;61272;-85
2022/08/25 02:28:57;;;;;;;9.80;3.30;;;;;;;29.06;43.87;100442.15;105006;1302;61293;-85
2022/08/25 02:31:25;;;;;;;11.70;3.30;;;;;;;29.06;43.95;100444.31;104883;1305;61259;-85
2022/08/25 02:33:51;;;;;;;8.90;2.80;;;;;;;29.06;43.77;100445.38;105020;1302;61227;-85
2022/08/25 02:36:17;;;;;;;8.30;2.80;;;;;;;29.06;43.70;100446.36;104971;1302;61359;-85
2022/08/25 02:38:43;;;;;;;6.20;2.90;;;;;;;29.06;43.78;100446.36;104935;1302;61249;-85
2022/08/25 02:41:12;;;;;;;8.20;3.00;;;;;;;29.06;43.97;100445.41;105019;1303;61278;-86
2022/08/25 02:43:40;;;;;;;7.40;3.20;;;;;;;29.06;43.84;100449.90;105174;1302;73985;-85
2022/08/25 02:46:06;;;;;;;8.10;3.10;;;;;;;29.05;43.84;100449.08;105155;1302;74862;-85
2022/08/25 02:48:32;;;;;;;6.50;2.70;;;;;;;29.05;43.80;100447.28;105017;1302;61161;-85
2022/08/25 02:50:59;;;;;;;8.10;3.00;;;;;;;29.06;43.80;100451.27;104951;1302;61653;-85
2022/08/25 02:53:48;;;;;;;7.10;2.70;;;;;;;29.06;43.62;100451.05;104998;1302;61232;-85
2022/08/25 02:56:14;;;;;;;7.80;2.70;;;;;;;29.05;43.74;100445.32;104696;1308;74479;-85
2022/08/25 02:58:40;;;;;;;7.90;3.10;;;;;;;29.05;43.71;100443.68;104604;1308;60005;-85
2022/08/25 03:01:10;;;;;;;7.60;2.80;;;;;;;29.05;43.64;100436.99;104441;1309;61047;-85
2022/08/25 03:03:40;;;;;;;6.30;3.30;;;;;;;29.05;43.76;100437.16;104501;1309;72845;-85
2022/08/25 03:06:09;;;;;;;8.00;3.30;;;;;;;29.05;43.81;100439.20;103325;1309;1727130;-85
2022/08/25 03:08:35;;;;;;;7.50;2.80;;;;;;;29.05;43.64;100437.54;104537;1309;62473;-85
2022/08/25 03:11:02;;;;;;;10.30;3.00;;;;;;;29.05;43.79;100427.08;104520;1307;61328;-85
2022/08/25 03:13:27;;;;;;;8.00;3.10;;;;;;;29.05;43.62;100423.10;104549;1309;61273;-85
2022/08/25 03:15:53;;;;;;;9.40;3.10;;;;;;;29.05;43.62;100423.48;104512;1309;61415;-85
2022/08/25 03:18:21;;;;;;;9.40;2.80;;;;;;;29.05;43.64;100419.46;104412;1308;61299;-86
2022/08/25 03:20:48;;;;;;;7.30;2.90;;;;;;;29.05;43.59;100420.17;104619;1308;61431;-85
2022/08/25 03:23:14;;;;;;;8.10;2.80;;;;;;;29.04;43.57;100421.34;104558;1309;60622;-85
2022/08/25 03:28:25;;;;;;;7.40;3.00;;;;;;;29.05;43.54;100426.15;104555;1309;61315;-86
2022/08/25 03:30:52;;;;;;;9.10;2.90;;;;;;;29.04;43.35;100423.52;104609;1308;61260;-85
2022/08/25 03:33:18;;;;;;;10.60;3.30;;;;;;;29.04;43.39;100423.38;104635;1302;74401;-85
2022/08/25 03:35:44;;;;;;;9.70;2.80;;;;;;;29.04;43.59;100419.23;104956;1303;61266;-85
2022/08/25 03:38:36;;;;;;;9.30;2.90;;;;;;;29.04;43.50;100420.29;104928;1303;59427;-85
2022/08/25 03:41:14;;;;;;;7.10;3.00;;;;;;;29.04;43.59;100426.50;104586;1308;61174;-86
2022/08/25 03:43:40;;;;;;;7.00;3.10;;;;;;;29.03;43.49;100426.91;104550;1308;72714;-85
2022/08/25 03:46:06;;;;;;;8.40;3.20;;;;;;;29.04;43.61;100431.56;104578;1309;61270;-85
2022/08/25 03:48:36;;;;;;;10.60;3.20;;;;;;;29.03;43.57;100429.08;104499;1309;61314;-85
2022/08/25 03:51:29;;;;;;;12.30;3.40;;;;;;;29.03;43.69;100432.14;104536;1309;61195;-85
2022/08/25 03:53:55;;;;;;;7.00;2.90;;;;;;;29.03;43.16;100436.93;104390;1315;73991;-86
2022/08/25 03:56:22;;;;;;;8.30;3.20;;;;;;;29.03;43.31;100434.05;104165;1313;59314;-85
2022/08/25 03:58:48;;;;;;;10.60;3.40;;;;;;;29.02;43.15;100435.36;104274;1314;61280;-85
2022/08/25 04:01:14;;;;;;;10.80;3.30;;;;;;;29.01;43.18;100435.13;104178;1315;61303;-85
2022/08/25 04:03:42;;;;;;;16.20;4.30;;;;;;;29.00;42.96;100432.86;104162;1313;61323;-85
2022/08/25 04:06:08;;;;;;;13.70;3.90;;;;;;;28.99;42.62;100433.29;104167;1313;74992;-84
2022/08/25 04:08:34;;;;;;;12.80;4.00;;;;;;;28.98;42.48;100433.80;104182;1313;61384;-85
2022/08/25 04:11:06;;;;;;;12.00;3.60;;;;;;;28.97;42.27;100433.36;104189;1313;61275;-85
2022/08/25 04:13:32;;;;;;;20.00;4.50;;;;;;;28.97;42.03;100439.17;104170;1313;75261;-85
2022/08/25 04:15:57;;;;;;;15.00;4.60;;;;;;;28.96;42.10;100439.85;104268;1313;61295;-85
2022/08/25 04:18:23;;;;;;;27.70;4.70;;;;;;;28.96;41.82;100442.06;104309;1308;61815;-85
2022/08/25 04:20:49;;;;;;;12.20;4.00;;;;;;;28.95;41.61;100444.11;104576;1308;61368;-85
2022/08/25 04:23:15;;;;;;;10.40;3.70;;;;;;;28.95;41.45;100443.75;104442;1311;60203;-85
2022/08/25 04:25:43;;;;;;;17.50;4.80;;;;;;;28.94;41.31;100445.80;104496;1309;61376;-85
2022/08/25 04:28:09;;;;;;;20.50;5.00;;;;;;;28.93;41.39;100445.96;104570;1308;61298;-85
2022/08/25 04:30:35;;;;;;;10.70;3.60;;;;;;;28.93;41.15;100449.73;104607;1302;61358;-85
2022/08/25 04:33:01;;;;;;;18.80;4.70;;;;;;;28.93;41.14;100450.14;105138;1302;61247;-85
2022/08/25 04:35:30;;;;;;;13.70;4.40;;;;;;;28.93;40.94;100451.77;104971;1303;59479;-86
2022/08/25 04:37:55;;;;;;;16.20;5.30;;;;;;;28.93;41.00;100450.86;104954;1302;75235;-84
2022/08/25 04:40:22;;;;;;;20.30;4.70;;;;;;;28.93;40.75;100452.66;104933;1302;61288;-84
2022/08/25 04:42:49;;;;;;;19.90;4.40;;;;;;;28.92;40.84;100453.09;104930;1305;61166;-84
2022/08/25 04:45:15;;;;;;;16.60;4.50;;;;;;;28.92;40.68;100452.95;104967;1302;61164;-85
2022/08/25 04:48:09;;;;;;;23.60;4.80;;;;;;;28.92;40.57;100453.67;105116;1301;61266;-85
2022/08/25 04:50:38;;;;;;;20.50;4.20;;;;;;;28.91;39.99;100451.41;104647;1307;61362;-85
2022/08/25 04:53:04;;;;;;;22.70;4.80;;;;;;;28.91;39.84;100449.25;104579;1309;61056;-85
2022/08/25 04:55:29;;;;;;;23.70;4.40;;;;;;;28.90;39.62;100451.84;104442;1308;61301;-85
2022/08/25 04:57:55;;;;;;;20.00;4.10;;;;;;;28.90;39.46;100449.50;104578;1308;61250;-85
2022/08/25 05:00:21;;;;;;;20.30;4.40;;;;;;;28.90;39.33;100451.33;104641;1309;61349;-85
2022/08/25 05:02:47;;;;;;;15.30;4.20;;;;;;;28.90;39.58;100455.17;104486;1308;61396;-85
2022/08/25 05:05:12;;;;;;;22.30;4.70;;;;;;;28.89;39.32;100454.28;104474;1308;61665;-85
2022/08/25 05:07:38;;;;;;;19.30;4.40;;;;;;;28.88;38.85;100456.05;104452;1309;72788;-85
2022/08/25 05:10:04;;;;;;;20.90;4.40;;;;;;;28.87;38.98;100455.48;104561;1308;61316;-85
2022/08/25 05:12:30;;;;;;;18.80;4.70;;;;;;;28.87;38.71;100460.19;104410;1309;61272;-85
2022/08/25 05:15:48;;;;;;;17.40;4.60;;;;;;;28.87;38.69;100462.91;104397;1309;61340;-85
2022/08/25 05:17:44;;;;;;;17.90;4.20;;;;;;;28.87;38.32;100458.23;104466;1308;72841;-84
2022/08/25 05:20:10;;;;;;;21.70;4.10;;;;;;;28.86;38.53;100455.98;104313;1310;61388;-84
2022/08/25 05:22:36;;;;;;;19.80;4.50;;;;;;;28.87;38.35;100454.42;104305;1309;61598;-85
2022/08/25 05:25:02;;;;;;;27.50;4.80;;;;;;;28.87;38.26;100458.77;104335;1309;61487;-85
2022/08/25 05:27:28;;;;;;;28.60;4.70;;;;;;;28.86;38.05;100460.46;104628;1305;59385;-85
2022/08/25 05:29:57;;;;;;;17.40;4.70;;;;;;;28.86;38.04;100465.21;104941;1302;61201;-85
2022/08/25 05:32:24;;;;;;;;;;;;;;;28.86;38.21;100466.63;104886;1303;61411;-85
2022/08/25 05:35:14;;;;;;;18.20;4.50;;;;;;;28.84;38.23;100470.66;105157;1302;61158;-85
2022/08/25 05:37:41;;;;;;;17.10;4.30;;;;;;;28.86;38.16;100469.23;104514;1309;73876;-85
2022/08/25 05:40:33;;;;;;;24.20;4.30;;;;;;;28.86;38.20;100468.24;104413;1309;61433;-85
2022/08/25 05:42:59;;;;;;;21.40;4.50;;;;;;;28.88;38.27;100460.80;104218;1315;61374;-85
2022/08/25 05:45:27;;;;;;;21.50;5.30;;;;;;;28.88;38.33;100462.65;104113;1313;61375;-85
2022/08/25 05:47:53;;;;;;;;;;;;;;;28.88;38.00;100460.77;104287;1314;73683;-85
2022/08/25 05:50:19;;;;;;;15.90;4.20;;;;;;;28.87;37.96;100461.52;104278;1313;60801;-85
2022/08/25 05:52:45;;;;;;;13.70;3.70;;;;;;;28.87;37.98;100462.90;104174;1313;61318;-85
2022/08/25 05:55:14;;;;;;;21.30;4.00;;;;;;;28.87;37.92;100462.41;104152;1315;61281;-85
2022/08/25 05:57:40;;;;;;;21.90;4.70;;;;;;;28.87;37.71;100463.83;104281;1312;73830;-86
2022/08/25 06:00:06;;;;;;;20.50;4.40;;;;;;;28.86;37.75;100463.35;104257;1312;61295;-85
2022/08/25 06:02:42;;;;;;;19.80;4.60;;;;;;;28.86;37.95;100463.15;104245;1312;61338;-85
2022/08/25 06:05:16;;;;;;;16.80;4.10;;;;;;;28.86;37.67;100464.61;104269;1312;61281;-85
2022/08/25 06:07:43;;;;;;;24.00;4.80;;;;;;;28.86;37.59;100465.56;104173;1312;75047;-85
2022/08/25 06:10:12;;;;;;;26.30;4.60;;;;;;;28.84;37.50;100466.85;104285;1312;74962;-85
2022/08/25 06:12:43;;;;;;;22.40;4.40;;;;;;;28.84;37.42;100471.94;104203;1313;61116;-84
2022/08/25 06:15:09;;;;;;;16.70;4.10;;;;;;;28.85;37.23;100472.34;104431;1308;61492;-85
2022/08/25 06:17:41;;;;;;;24.40;4.50;;;;;;;28.85;37.32;100466.58;104452;1311;73037;-85
2022/08/25 06:20:13;;;;;;;15.20;4.40;;;;;;;28.85;37.33;100470.01;104715;1303;75809;-85
2022/08/25 06:22:39;;;;;;;14.90;4.10;;;;;;;28.85;37.46;100470.73;104968;1303;61603;-85
2022/08/25 06:25:07;;;;;;;23.10;4.80;;;;;;;28.86;37.52;100469.60;104969;1303;60332;-85
2022/08/25 06:27:33;;;;;;;16.20;4.00;;;;;;;28.86;37.36;100475.35;105003;1303;73052;-86
2022/08/25 06:30:03;;;;;;;18.20;4.60;;;;;;;28.86;37.35;100478.05;104935;1303;61278;-85
2022/08/25 06:32:41;;;;;;;14.50;3.90;;;;;;;28.87;37.32;100476.86;105122;1303;61557;-85
2022/08/25 06:35:11;;;;;;;20.40;4.20;;;;;;;28.88;37.25;100473.13;104972;1303;60806;-85
2022/08/25 06:37:37;;;;;;;17.50;4.10;;;;;;;28.88;37.38;100471.16;105115;1303;73726;-84
2022/08/25 06:40:04;;;;;;;16.00;4.10;;;;;;;28.88;37.57;100474.70;104931;1303;61335;-85
2022/08/25 06:42:29;;;;;;;13.20;3.70;;;;;;;28.90;37.23;100475.23;104961;1303;61148;-87
2022/08/25 06:44:55;;;;;;;14.10;4.20;;;;;;;28.91;37.36;100473.30;104908;1303;61346;-87
2022/08/25 06:47:21;;;;;;;14.80;4.00;;;;;;;28.91;37.47;100479.63;104932;1303;61285;-85
2022/08/25 06:49:46;;;;;;;17.70;4.40;;;;;;;28.91;37.44;100473.17;104968;1303;61336;-85
2022/08/25 06:52:13;;;;;;;17.40;4.40;;;;;;;28.90;37.31;100473.30;104945;1303;61339;-85
2022/08/25 06:54:39;;;;;;;17.70;4.30;;;;;;;28.88;37.16;100477.48;104976;1303;59317;-85
2022/08/25 06:57:05;;;;;;;19.10;4.40;;;;;;;28.86;36.84;100480.65;104966;1303;61378;-86
2022/08/25 06:59:32;;;;;;;15.50;4.30;;;;;;;28.85;36.69;100471.13;104944;1303;61315;-85
2022/08/25 07:01:59;;;;;;;13.90;4.40;;;;;;;28.85;36.66;100473.13;104961;1303;61349;-85
2022/08/25 07:04:24;;;;;;;14.80;4.30;;;;;;;28.84;36.17;100475.54;104939;1303;60411;-85
2022/08/25 07:06:50;;;;;;;16.20;4.40;;;;;;;28.84;36.15;100473.23;105077;1302;61272;-86
2022/08/25 07:09:16;;;;;;;17.20;4.40;;;;;;;28.83;35.97;100471.27;104812;1303;61242;-86
2022/08/25 07:11:42;;;;;;;19.50;4.20;;;;;;;28.83;36.04;100470.72;104983;1303;61272;-85
2022/08/25 07:14:10;;;;;;;15.70;4.60;;;;;;;28.83;35.85;100467.65;105006;1303;61313;-86
2022/08/25 07:16:36;;;;;;;10.30;3.90;;;;;;;28.83;35.82;100464.84;104961;1303;61343;-85
2022/08/25 07:19:02;;;;;;;16.30;4.40;;;;;;;28.83;35.50;100465.56;104953;1303;61393;-85
2022/08/25 07:21:29;;;;;;;11.00;4.40;;;;;;;28.82;35.22;100457.81;104923;1302;61451;-86
2022/08/25 07:23:57;;;;;;;13.20;4.30;;;;;;;28.83;34.93;100452.31;105015;1302;61296;-86
2022/08/25 07:26:26;;;;;;;14.40;4.40;;;;;;;28.84;35.14;100449.90;104934;1303;61122;-86
2022/08/25 07:29:17;;;;;;;16.30;4.20;;;;;;;28.84;34.82;100448.95;104923;1303;73219;-86
2022/08/25 07:31:42;;;;;;;11.90;4.10;;;;;;;28.83;34.69;100444.73;104581;1309;74941;-86
2022/08/25 07:36:54;;;;;;;13.00;4.10;;;;;;;28.85;34.72;100445.22;104417;1308;61426;-86
2022/08/25 07:39:22;;;;;;;16.10;4.60;;;;;;;28.84;34.54;100445.08;104381;1309;61384;-86
2022/08/25 07:41:50;;;;;;;13.70;4.40;;;;;;;28.83;34.31;100446.30;104496;1309;74778;-86
2022/08/25 07:44:15;;;;;;;14.30;3.90;;;;;;;28.83;34.45;100443.41;104488;1309;61253;-86
2022/08/25 07:46:41;;;;;;;14.40;4.10;;;;;;;28.84;34.31;100450.58;104414;1309;61235;-86
2022/08/25 07:49:34;;;;;;;14.80;4.00;;;;;;;28.84;34.18;100452.48;104511;1308;61841;-86
2022/08/25 07:52:00;;;;;;;12.50;4.00;;;;;;;28.84;34.24;100456.31;104159;1314;75041;-86
2022/08/25 07:54:26;;;;;;;11.50;3.90;;;;;;;28.85;34.18;100458.09;104153;1314;61445;-86
2022/08/25 07:56:53;;;;;;;9.40;3.80;;;;;;;28.86;34.14;100458.16;104278;1314;61288;-86
2022/08/25 07:59:18;;;;;;;11.20;4.50;;;;;;;28.87;34.19;100462.57;104162;1314;61406;-85
2022/08/25 08:01:45;;;;;;;13.80;4.10;;;;;;;28.87;34.15;100464.13;103986;1314;61361;-86
2022/08/25 08:04:11;;;;;;;17.20;4.20;;;;;;;28.88;33.94;100461.36;104063;1314;63263;-86
2022/08/25 08:06:37;;;;;;;10.30;3.90;;;;;;;28.88;34.12;100461.52;104069;1314;61407;-86
2022/08/25 08:09:03;;;;;;;10.20;3.70;;;;;;;28.90;33.99;100458.63;104213;1311;61392;-86
2022/08/25 08:11:32;;;;;;;6.30;3.40;;;;;;;28.90;34.20;100458.73;104307;1312;61385;-86
2022/08/25 08:13:58;;;;;;;10.70;3.70;;;;;;;28.91;34.21;100453.52;104423;1311;61164;-86
2022/08/25 08:16:25;;;;;;;11.30;3.80;;;;;;;28.92;34.01;100452.39;104375;1312;61276;-84
2022/08/25 08:18:51;;;;;;;13.60;4.00;;;;;;;28.92;33.87;100450.55;104323;1311;61430;-87
2022/08/25 08:21:20;;;;;;;11.80;4.00;;;;;;;28.92;34.18;100447.66;104365;1311;61288;-86
2022/08/25 08:23:47;;;;;;;16.10;3.70;;;;;;;28.91;33.76;100445.05;104325;1312;61464;-84
2022/08/25 08:26:38;;;;;;;16.20;4.30;;;;;;;28.92;33.70;100449.14;104326;1311;62025;-86
2022/08/25 08:29:04;;;;;;;8.10;3.40;;;;;;;28.92;33.95;100446.98;104124;1310;72698;-88
2022/08/25 08:31:30;;;;;;;11.10;4.10;;;;;;;28.92;34.13;100440.59;104345;1311;61415;-85
2022/08/25 08:33:56;;;;;;;10.00;3.50;;;;;;;28.92;33.94;100441.17;104436;1309;61423;-85
2022/08/25 08:36:21;;;;;;;9.80;3.90;;;;;;;28.93;33.71;100441.28;104332;1312;61150;-85
2022/08/25 08:38:47;;;;;;;12.90;3.70;;;;;;;28.92;33.83;100435.52;104319;1310;61298;-85
2022/08/25 08:44:49;;;;;;;10.70;4.00;;;;;;;28.92;33.81;100431.23;104380;1311;61524;-87
2022/08/25 08:47:29;;;;;;;18.60;3.80;;;;;;;28.91;33.44;100427.48;104289;1311;61100;-85
2022/08/25 08:49:55;;;;;;;12.80;4.30;;;;;;;28.91;33.45;100428.44;104471;1309;73972;-85
2022/08/25 08:52:27;;;;;;;7.30;3.50;;;;;;;28.90;33.41;100428.70;104484;1310;61326;-85
2022/08/25 08:54:55;;;;;;;8.90;3.60;;;;;;;28.91;33.70;100431.13;104374;1310;62289;-85
2022/08/25 08:57:24;;;;;;;8.40;4.10;;;;;;;28.93;33.59;100430.58;104297;1311;61234;-86
2022/08/25 08:59:55;;;;;;;8.90;3.50;;;;;;;28.94;33.73;100431.56;104473;1309;73836;-85
2022/08/25 09:02:41;;;;;;;15.20;4.10;;;;;;;28.96;33.75;100429.36;104360;1311;74707;-85
2022/08/25 09:05:10;;;;;;;13.50;3.70;;;;;;;28.97;33.95;100419.64;104273;1311;60528;-85
2022/08/25 09:07:41;;;;;;;8.70;3.70;;;;;;;28.98;33.66;100416.08;104967;1303;61087;-85
2022/08/25 09:10:07;;;;;;;12.50;3.80;;;;;;;28.99;33.81;100417.77;104839;1303;71794;-85
2022/08/25 09:12:45;;;;;;;9.20;3.70;;;;;;;29.00;33.91;100413.83;104639;1303;61289;-85
2022/08/25 09:18:44;;;;;;;11.00;3.70;;;;;;;29.02;33.92;100413.86;104480;1308;61335;-86
2022/08/25 09:21:17;;;;;;;11.90;3.60;;;;;;;29.02;33.99;100409.79;104147;1314;72824;-85
2022/08/25 09:23:53;;;;;;;9.60;4.00;;;;;;;29.03;33.80;100408.67;104262;1314;73735;-85
2022/08/25 09:26:28;;;;;;;8.10;3.80;;;;;;;29.03;33.74;100404.80;104223;1314;61152;-85
2022/08/25 09:29:23;;;;;;;12.70;3.90;;;;;;;29.04;33.76;100404.90;104221;1315;61205;-86
2022/08/25 09:31:49;;;;;;;9.60;3.90;;;;;;;29.04;34.03;100397.83;103568;1319;72881;-85
2022/08/25 09:34:21;;;;;;;11.80;3.50;;;;;;;29.04;33.79;100393.05;103483;1319;75713;-86
2022/08/25 09:37:01;;;;;;;10.00;3.50;;;;;;;29.05;33.63;100392.47;103585;1320;61503;-87
2022/08/25 09:39:26;;;;;;;;;;;;;;;29.04;33.40;100395.59;103460;1320;61391;-87
2022/08/25 09:41:56;;;;;;;9.50;3.00;;;;;;;29.03;33.57;100386.35;103538;1320;61317;-86
2022/08/25 09:44:32;;;;;;;10.30;3.20;;;;;;;29.04;33.60;100391.30;103566;1318;74778;-86
2022/08/25 09:47:24;;;;;;;9.00;3.10;;;;;;;29.04;33.17;100389.64;103548;1319;61742;-86
2022/08/25 09:50:00;;;;;;;9.00;3.20;;;;;;;29.04;33.33;100385.67;103644;1319;61425;-87
2022/08/25 09:52:32;;;;;;;11.00;3.90;;;;;;;29.04;33.28;100385.59;103438;1319;72701;-86
2022/08/25 09:55:23;;;;;;;6.20;2.90;;;;;;;29.05;33.41;100380.63;103794;1314;74692;-87
2022/08/25 09:57:49;;;;;;;9.90;3.50;;;;;;;29.05;33.33;100379.24;104225;1312;61395;-87
2022/08/25 10:00:28;;;;;;;10.00;3.70;;;;;;;29.06;33.18;100377.34;104554;1310;61111;-86
2022/08/25 10:03:21;;;;;;;9.40;3.50;;;;;;;29.06;33.25;100378.56;104432;1311;72871;-86
2022/08/25 10:06:13;;;;;;;8.60;3.10;;;;;;;29.06;33.30;100375.89;104406;1311;74791;-86
2022/08/25 10:08:43;;;;;;;9.50;3.40;;;;;;;29.06;33.49;100366.82;104697;1303;61199;-86
2022/08/25 10:11:32;;;;;;;6.30;3.10;;;;;;;29.06;33.50;100365.32;104911;1303;61830;-86
2022/08/25 10:14:22;;;;;;;10.30;3.30;;;;;;;29.07;33.39;100363.27;104698;1294;111036;-82
2022/08/25 10:16:48;;;;;;;10.70;3.10;;;;;;;29.06;33.41;100364.52;104336;1306;75863;-83
2022/08/25 10:19:27;;;;;;;14.40;3.40;;;;;;;29.07;33.39;100362.87;104486;1306;61321;-82
2022/08/25 10:22:31;;;;;;;8.30;3.40;;;;;;;29.07;33.43;100355.77;104301;1308;61201;-83
2022/08/25 10:25:00;;;;;;;7.50;3.30;;;;;;;29.07;33.44;100353.66;104039;1313;72640;-81
2022/08/25 10:27:51;;;;;;;12.40;3.10;;;;;;;29.07;33.43;100352.51;104136;1313;74820;-83
2022/08/25 10:30:30;;;;;;;7.90;3.00;;;;;;;29.07;33.36;100348.40;104058;1313;61280;-84
2022/08/25 10:33:22;;;;;;;7.80;3.50;;;;;;;29.07;33.23;100354.14;104124;1313;61374;-83
2022/08/25 10:36:10;;;;;;;7.40;2.70;;;;;;;29.07;33.40;100350.88;104055;1313;73760;-83
2022/08/25 10:38:44;;;;;;;10.50;3.20;;;;;;;29.07;33.22;100340.71;104843;1312;74683;-81
2022/08/25 10:41:23;;;;;;;9.20;3.10;;;;;;;29.08;33.24;100346.46;104131;1313;61223;-82
2022/08/25 10:43:52;;;;;;;9.60;3.10;;;;;;;29.08;33.18;100336.61;104284;1313;61824;-83
2022/08/25 10:46:29;;;;;;;11.30;3.10;;;;;;;29.08;33.13;100337.55;104197;1313;72729;-84
2022/08/25 10:48:57;;;;;;;9.50;3.60;;;;;;;29.09;33.08;100326.24;104305;1311;74685;-84
2022/08/25 10:51:40;;;;;;;13.30;3.40;;;;;;;29.08;33.11;100318.13;104335;1311;61246;-83
2022/08/25 10:54:43;;;;;;;10.40;3.40;;;;;;;29.08;33.15;100318.67;104194;1311;61212;-82
2022/08/25 10:57:13;;;;;;;9.20;3.10;;;;;;;29.08;33.14;100322.00;104640;1305;73823;-82
2022/08/25 11:00:13;;;;;;;8.80;3.50;;;;;;;29.08;33.18;100324.52;104543;1306;74702;-81
2022/08/25 11:03:00;;;;;;;12.50;3.80;;;;;;;29.08;33.27;100317.79;104512;1305;61393;-82
2022/08/25 11:05:50;;;;;;;11.40;3.50;;;;;;;29.08;33.27;100312.92;104681;1305;61260;-82
2022/08/25 11:08:45;;;;;;;11.50;4.00;;;;;;;29.08;33.29;100307.46;104719;1305;73907;-82
2022/08/25 11:11:33;;;;;;;10.70;3.90;;;;;;;29.09;33.48;100306.89;104804;1305;75874;-82
2022/08/25 11:14:09;;;;;;;11.20;3.90;;;;;;;29.09;33.27;100311.91;104835;1305;61838;-80
2022/08/25 11:16:42;;;;;;;8.80;3.30;;;;;;;29.09;33.27;100308.32;104760;1305;61170;-82
2022/08/25 11:19:17;;;;;;;7.60;3.30;;;;;;;29.09;33.27;100306.31;104624;1305;72839;-82
2022/08/25 11:21:43;;;;;;;11.70;3.70;;;;;;;29.09;33.34;100301.02;104629;1305;75810;-81
2022/08/25 11:24:21;;;;;;;11.40;4.20;;;;;;;29.10;33.27;100298.05;104614;1304;61299;-82
2022/08/25 11:26:52;;;;;;;10.70;3.60;;;;;;;29.10;33.37;100300.19;104703;1304;61352;-82
2022/08/25 11:29:17;;;;;;;7.30;3.80;;;;;;;29.11;33.33;100300.70;104723;1305;72227;-83
2022/08/25 11:31:46;;;;;;;10.50;4.10;;;;;;;29.10;33.49;100292.38;104706;1304;61592;-82
2022/08/25 11:34:14;;;;;;;7.90;3.40;;;;;;;29.11;33.34;100290.64;104745;1305;61390;-82
2022/08/25 11:36:42;;;;;;;13.30;3.30;;;;;;;29.11;33.11;100282.15;104725;1305;61326;-81
2022/08/25 11:39:23;;;;;;;8.50;3.30;;;;;;;29.11;33.19;100289.76;104788;1305;72940;-83
2022/08/25 11:42:13;;;;;;;9.90;3.80;;;;;;;29.11;33.36;100281.44;104754;1305;74616;-83
2022/08/25 11:44:44;;;;;;;7.40;3.70;;;;;;;29.11;33.53;100285.27;104747;1305;61074;-82